| Date | Time | Temp. (oF) | Dew Point (oF) | Rel. Hum. (%) | Press. (in.) | Wind Dir. | Wind Speed (mph) | Hourly Rainfall (in.) |
|
|---|---|---|---|---|---|---|---|---|---|
| 1 | 07/04 | 00:00 | 78 | 70 | 79 | 30.19 | ESE | 4 | 0.00 |
| 2 | 07/03 | 23:00 | 79 | 69 | 74 | 30.17 | NE | 2 | 0.00 |
| 3 | 07/03 | 22:00 | 80 | 68 | 69 | 30.18 | W | 1 | 0.00 |
| 4 | 07/03 | 21:00 | 85 | 69 | 60 | 30.18 | S | 6 | 0.00 |
| 5 | 07/03 | 20:00 | 95 | 95 | 100 | 30.12 | NNE | 6 | 0.00 |
| 6 | 07/03 | 19:00 | 96 | 95 | 100 | 30.09 | NNW | 3 | 0.00 |
| 7 | 07/03 | 18:00 | 98 | 98 | 100 | 30.09 | WSW | 1 | 0.00 |
| 8 | 07/03 | 17:00 | 97 | 96 | 100 | 30.10 | W | 4 | 0.00 |
| 9 | 07/03 | 16:00 | 98 | 98 | 100 | 30.12 | SW | 1 | 0.00 |
| 10 | 07/03 | 15:00 | 96 | 74 | 50 | 30.13 | NNW | 7 | 0.00 |
| 11 | 07/03 | 14:00 | 96 | 74 | 50 | 30.14 | SSE | 4 | 0.00 |
| 12 | 07/03 | 13:00 | 95 | 74 | 53 | 30.16 | ESE | 3 | 0.00 |
| 13 | 07/03 | 12:00 | 94 | 74 | 53 | 30.16 | WNW | 2 | 0.00 |
| 14 | 07/03 | 11:00 | 91 | 74 | 58 | 30.16 | SE | 2 | 0.00 |
| 15 | 07/03 | 10:00 | 88 | 73 | 63 | 30.15 | E | 1 | 0.00 |
| 16 | 07/03 | 09:00 | 84 | 74 | 74 | 30.15 | N | 2 | 0.00 |
| 17 | 07/03 | 08:00 | 80 | 74 | 84 | 30.14 | ESE | 2 | 0.00 |
| 18 | 07/03 | 07:00 | 76 | 72 | 89 | 30.13 | NW | 1 | 0.00 |
| 19 | 07/03 | 06:00 | 76 | 71 | 87 | 30.11 | NW | 0 | 0.00 |
| 20 | 07/03 | 05:00 | 77 | 72 | 85 | 30.09 | NW | 1 | 0.00 |
| 21 | 07/03 | 04:00 | 78 | 73 | 86 | 30.08 | WSW | 0 | 0.00 |
| 22 | 07/03 | 03:00 | 78 | 72 | 84 | 30.07 | SW | 1 | 0.00 |
| 23 | 07/03 | 02:00 | 80 | 72 | 79 | 30.07 | SW | 0 | 0.00 |
| 24 | 07/03 | 01:00 | 81 | 72 | 76 | 30.08 | ESE | 1 | 0.00 |